Terminal Aerodrome Forecast
Issued by NWS

Home | Current Version | Previous Version | Text Only | Print | Product List | Glossary On
Versions: 1 2 3 4 5 6 7 8 9 10 11 12 13 14 15 16 17 18 19 20 21 22 23 24 25 26 27 28 29 30 31
835
FTUS45 KPSR 302039 AAB
TAFPHX
TAF AMD
KPHX 302039Z 3021/0118 18012G25KT P6SM VCSH BKN100 BKN140
      TEMPO 3021/3022 23015G24KT
     FM302200 28017G28KT P6SM VCTS BKN080CB OVC100
     FM010300 26010KT P6SM VCSH BKN090
     FM010600 11008KT P6SM BKN080=

USA.gov is the U.S. government's official web portal to all federal, state and local government web resources and services.